< < Back
Terminal Aerodrome Forecast


Current Version              Previous Versions:   1  2  3  4  5  6  7  8  9  

Terminal Aerodrome Forecast

612
FTUS42 KFFC 290500
TAFCSG
TAF
KCSG 290525Z 2906/3006 34005KT P6SM SKC
     FM291600 35009G18KT P6SM SCT050
     FM300000 35006KT P6SM SKC=



Latest METAR

385
SAUS70 KWBC 291354
MTRCSG
METAR KCSG 291351Z VRB03KT 10SM CLR 26/16 A3001 RMK AO2 SLP156
T02560161


USA.gov is the U.S. government's official web portal to all federal, state and local government web resources and services.